サンフアン の空港の天気 - METARとTAF

ルイス・ムニョス・マリン国際空港 ( TJSJ / SJU ) - プエルトリコ サンフアン
飛行場実況気象(Metar)
観測時間11/27 03:56 AST (11/27 07:56 UTC)
風向・風速静穏 0m/s
視程10km以上
天気現象
少しの雲 雲底高度 880m
気温24.4℃
湿度85%
気圧1014.8hPa
METARTJSJ 270756Z 00000KT 10SM FEW029 24/22 A2997 RMK AO2 SLP148 T02440217
過去の天気等 Google飛行場航空写真 Wunderground天気予報

過去48時間のMETAR

飛行場予報(TAF)
発表時間: 11/27 01:20 AST (11/27 05:20 UTC)
予報対象時間: 27日2時 AST ~ 28日2時 AST
風向・風速東南東 2m/s
視程10km以上
少しの雲 雲底高度 760m
少しの雲 雲底高度 1220m
27日10時 AST から
風向・風速東北東 8m/s
視程10km以上
天気現象周辺でしゅう雨
全天の4割程度の雲 雲底高度 910m
全天の4割程度の雲 雲底高度 1520m
27日19時 AST から
風向・風速東 4m/s
視程10km以上
全天の4割程度の雲 雲底高度 910m
TJSJ 270520Z 2706/2806 12003KT P6SM FEW025 FEW040
FM271400 07015KT P6SM VCSH SCT030 SCT050
FM272300 08007KT P6SM SCT030